CBY302 VTPP-VTBD
Flight info
| Callsign | CBY302 |
|---|---|
| Flight time | 0h 45m |
| Altitude | 15000 |
| Route | PEBLI1A PEBLI Y28 BLAFF DCT NAKON NAKON3A |
| Aircraft | AT76/M-SDFGIRY/S |
Departure
| Time | 2026-05-04 11:10 |
|---|---|
| Airport | Phitsanulok Airport (VTPP) |
Arrival
| Time | 2026-05-04 11:55 |
|---|---|
| Airport | Don Mueang International Airport (VTBD) |
| Time | Latitude | Longitude | Altitude | Speed | Heading |
|---|---|---|---|---|---|
| 2026-05-04 11:01 | 16.79296 | 100.27255 | 152 ft | 18 kts | 233° |
| 2026-05-04 11:02 | 16.79259 | 100.27208 | 153 ft | 8 kts | 220° |
| 2026-05-04 11:02 | 16.79215 | 100.27214 | 153 ft | 6 kts | 143° |
| 2026-05-04 11:05 | 16.77765 | 100.28127 | 150 ft | 0 kts | 324° |
| 2026-05-04 11:06 | 16.77838 | 100.28072 | 150 ft | 17 kts | 324° |
| 2026-05-04 11:06 | 16.77940 | 100.27994 | 151 ft | 20 kts | 324° |
| 2026-05-04 11:06 | 16.78091 | 100.27880 | 151 ft | 25 kts | 323° |
| 2026-05-04 11:08 | 16.78770 | 100.27552 | 151 ft | 11 kts | 147° |
| 2026-05-04 11:10 | 16.73686 | 100.31458 | 1484 ft | 196 kts | 145° |
| 2026-05-04 11:12 | 16.64383 | 100.32246 | 4176 ft | 203 kts | 184° |
| 2026-05-04 11:12 | 16.62972 | 100.32153 | 4600 ft | 204 kts | 185° |
| 2026-05-04 11:12 | 16.61552 | 100.32038 | 4980 ft | 205 kts | 186° |
| 2026-05-04 11:12 | 16.60124 | 100.31920 | 5339 ft | 206 kts | 185° |
| 2026-05-04 11:13 | 16.58703 | 100.31806 | 5695 ft | 208 kts | 185° |
| 2026-05-04 11:13 | 16.57254 | 100.31696 | 6050 ft | 209 kts | 186° |
| 2026-05-04 11:13 | 16.55792 | 100.31582 | 6411 ft | 211 kts | 186° |
| 2026-05-04 11:13 | 16.54322 | 100.31470 | 6762 ft | 212 kts | 186° |
| 2026-05-04 11:14 | 16.53827 | 100.31432 | 6877 ft | 212 kts | 186° |
| 2026-05-04 11:14 | 16.50871 | 100.31208 | 7555 ft | 214 kts | 186° |
| 2026-05-04 11:16 | 16.39330 | 100.30323 | 10051 ft | 221 kts | 187° |
| 2026-05-04 11:16 | 16.37778 | 100.30206 | 10344 ft | 222 kts | 187° |
| 2026-05-04 11:16 | 16.36233 | 100.30089 | 10634 ft | 222 kts | 187° |
| 2026-05-04 11:17 | 16.34689 | 100.29971 | 10912 ft | 223 kts | 187° |
| 2026-05-04 11:17 | 16.33141 | 100.29853 | 11182 ft | 224 kts | 187° |
| 2026-05-04 11:19 | 16.22119 | 100.29336 | 13015 ft | 230 kts | 182° |
| 2026-05-04 11:19 | 16.20517 | 100.29342 | 13232 ft | 230 kts | 182° |
| 2026-05-04 11:19 | 16.18911 | 100.29349 | 13453 ft | 231 kts | 182° |
| 2026-05-04 11:19 | 16.17300 | 100.29358 | 13702 ft | 232 kts | 182° |
| 2026-05-04 11:20 | 16.15685 | 100.29368 | 13915 ft | 233 kts | 182° |
| 2026-05-04 11:20 | 16.14082 | 100.29391 | 14126 ft | 234 kts | 181° |
| 2026-05-04 11:20 | 16.12451 | 100.29421 | 14323 ft | 235 kts | 182° |
| 2026-05-04 11:20 | 16.10813 | 100.29439 | 14516 ft | 236 kts | 182° |
| 2026-05-04 11:22 | 15.98555 | 100.29492 | 14805 ft | 266 kts | 182° |
| 2026-05-04 11:22 | 15.96692 | 100.29500 | 14806 ft | 268 kts | 182° |
| 2026-05-04 11:23 | 15.94822 | 100.29508 | 14811 ft | 270 kts | 182° |
| 2026-05-04 11:23 | 15.92937 | 100.29516 | 14811 ft | 271 kts | 182° |
| 2026-05-04 11:24 | 15.81535 | 100.29562 | 14815 ft | 275 kts | 181° |
| 2026-05-04 11:25 | 15.79621 | 100.29569 | 14815 ft | 275 kts | 181° |
| 2026-05-04 11:25 | 15.77707 | 100.29577 | 14814 ft | 275 kts | 181° |
| 2026-05-04 11:25 | 15.75790 | 100.29584 | 14814 ft | 275 kts | 181° |
| 2026-05-04 11:26 | 15.72053 | 100.29600 | 14819 ft | 275 kts | 181° |
| 2026-05-04 11:27 | 15.58641 | 100.29655 | 14825 ft | 276 kts | 181° |
| 2026-05-04 11:28 | 15.56716 | 100.29664 | 14829 ft | 276 kts | 181° |
| 2026-05-04 11:28 | 15.54795 | 100.29670 | 14823 ft | 276 kts | 181° |
| 2026-05-04 11:28 | 15.52871 | 100.29679 | 14822 ft | 276 kts | 181° |
| 2026-05-04 11:28 | 15.50947 | 100.29691 | 14827 ft | 276 kts | 181° |
| 2026-05-04 11:29 | 15.49026 | 100.29697 | 14827 ft | 276 kts | 181° |
| 2026-05-04 11:29 | 15.47101 | 100.29704 | 14828 ft | 277 kts | 181° |
| 2026-05-04 11:29 | 15.45179 | 100.29715 | 14829 ft | 277 kts | 181° |
| 2026-05-04 11:29 | 15.43250 | 100.29721 | 14832 ft | 277 kts | 181° |
| 2026-05-04 11:31 | 15.29764 | 100.29784 | 14831 ft | 277 kts | 181° |
| 2026-05-04 11:33 | 15.17025 | 100.33864 | 14831 ft | 278 kts | 161° |
| 2026-05-04 11:33 | 15.15211 | 100.34565 | 14830 ft | 278 kts | 161° |
| 2026-05-04 11:33 | 15.13393 | 100.35265 | 14839 ft | 278 kts | 161° |
| 2026-05-04 11:34 | 15.11572 | 100.35966 | 14840 ft | 279 kts | 161° |
| 2026-05-04 11:34 | 15.09758 | 100.36664 | 14842 ft | 279 kts | 161° |
| 2026-05-04 11:34 | 15.07934 | 100.37367 | 14842 ft | 279 kts | 161° |
| 2026-05-04 11:34 | 15.06141 | 100.38057 | 14836 ft | 279 kts | 161° |
| 2026-05-04 11:35 | 15.04321 | 100.38757 | 14841 ft | 279 kts | 161° |
| 2026-05-04 11:35 | 15.02501 | 100.39459 | 14842 ft | 279 kts | 161° |
| 2026-05-04 11:35 | 15.00678 | 100.40160 | 14841 ft | 279 kts | 161° |
| 2026-05-04 11:35 | 14.98857 | 100.40860 | 14837 ft | 279 kts | 161° |
| 2026-05-04 11:36 | 14.97039 | 100.41559 | 14842 ft | 279 kts | 161° |
| 2026-05-04 11:36 | 14.95219 | 100.42260 | 14845 ft | 279 kts | 161° |
| 2026-05-04 11:36 | 14.93419 | 100.42952 | 14844 ft | 279 kts | 161° |
| 2026-05-04 11:36 | 14.91599 | 100.43651 | 14846 ft | 279 kts | 161° |
| 2026-05-04 11:37 | 14.89777 | 100.44351 | 14847 ft | 279 kts | 160° |
| 2026-05-04 11:37 | 14.87955 | 100.45050 | 14846 ft | 279 kts | 160° |
| 2026-05-04 11:37 | 14.86133 | 100.45750 | 14843 ft | 279 kts | 161° |
| 2026-05-04 11:37 | 14.84309 | 100.46450 | 14847 ft | 279 kts | 161° |
| 2026-05-04 11:38 | 14.82489 | 100.47149 | 14845 ft | 279 kts | 160° |
| 2026-05-04 11:38 | 14.80653 | 100.47854 | 14731 ft | 284 kts | 161° |
| 2026-05-04 11:38 | 14.78787 | 100.48570 | 14593 ft | 288 kts | 160° |
| 2026-05-04 11:38 | 14.76896 | 100.49296 | 14459 ft | 291 kts | 160° |
| 2026-05-04 11:39 | 14.75015 | 100.50015 | 14326 ft | 293 kts | 160° |
| 2026-05-04 11:39 | 14.73097 | 100.50755 | 14193 ft | 295 kts | 160° |
| 2026-05-04 11:40 | 14.63264 | 100.53804 | 13187 ft | 195 kts | 165° |
| 2026-05-04 11:41 | 14.61988 | 100.54174 | 13166 ft | 186 kts | 164° |
| 2026-05-04 11:41 | 14.60775 | 100.54536 | 13165 ft | 177 kts | 164° |
| 2026-05-04 11:41 | 14.59618 | 100.54871 | 13158 ft | 168 kts | 164° |
| 2026-05-04 11:41 | 14.58515 | 100.55188 | 13146 ft | 159 kts | 164° |
| 2026-05-04 11:42 | 14.57408 | 100.55524 | 13115 ft | 182 kts | 162° |
| 2026-05-04 11:42 | 14.56174 | 100.55880 | 13093 ft | 182 kts | 166° |
| 2026-05-04 11:42 | 14.54913 | 100.56207 | 13035 ft | 191 kts | 166° |
| 2026-05-04 11:42 | 14.53604 | 100.56556 | 13040 ft | 198 kts | 165° |
| 2026-05-04 11:43 | 14.52270 | 100.56918 | 13043 ft | 204 kts | 165° |
| 2026-05-04 11:43 | 14.50864 | 100.57309 | 13046 ft | 209 kts | 165° |
| 2026-05-04 11:43 | 14.49437 | 100.57715 | 12708 ft | 229 kts | 164° |
| 2026-05-04 11:43 | 14.47833 | 100.58173 | 12063 ft | 248 kts | 164° |
| 2026-05-04 11:44 | 14.46118 | 100.58664 | 11417 ft | 262 kts | 165° |
| 2026-05-04 11:44 | 14.44331 | 100.59175 | 10782 ft | 271 kts | 164° |
| 2026-05-04 11:44 | 14.42488 | 100.59702 | 10157 ft | 277 kts | 164° |
| 2026-05-04 11:44 | 14.40620 | 100.60236 | 9520 ft | 274 kts | 164° |
| 2026-05-04 11:45 | 14.38925 | 100.60722 | 8871 ft | 256 kts | 164° |
| 2026-05-04 11:45 | 14.37256 | 100.61197 | 8207 ft | 243 kts | 164° |
| 2026-05-04 11:45 | 14.35660 | 100.61654 | 7559 ft | 233 kts | 163° |
| 2026-05-04 11:45 | 14.34124 | 100.62108 | 6928 ft | 227 kts | 163° |
| 2026-05-04 11:46 | 14.32680 | 100.62532 | 6736 ft | 204 kts | 163° |
| 2026-05-04 11:46 | 14.31404 | 100.62901 | 6569 ft | 186 kts | 163° |
| 2026-05-04 11:46 | 14.30206 | 100.63241 | 6415 ft | 174 kts | 163° |
| 2026-05-04 11:46 | 14.29416 | 100.63466 | 6311 ft | 176 kts | 163° |
| 2026-05-04 11:47 | 14.27820 | 100.63936 | 6061 ft | 186 kts | 163° |
| 2026-05-04 11:47 | 14.26984 | 100.64182 | 5900 ft | 191 kts | 163° |
| 2026-05-04 11:47 | 14.25231 | 100.64684 | 5586 ft | 200 kts | 163° |
| 2026-05-04 11:47 | 14.24333 | 100.64940 | 5425 ft | 203 kts | 163° |
| 2026-05-04 11:48 | 14.22953 | 100.65334 | 5189 ft | 208 kts | 163° |
| 2026-05-04 11:48 | 14.21543 | 100.65736 | 4951 ft | 211 kts | 163° |
| 2026-05-04 11:48 | 14.20121 | 100.66144 | 4717 ft | 214 kts | 163° |
| 2026-05-04 11:48 | 14.18681 | 100.66562 | 4472 ft | 215 kts | 163° |
| 2026-05-04 11:49 | 14.17236 | 100.66977 | 4219 ft | 216 kts | 164° |
| 2026-05-04 11:49 | 14.15786 | 100.67384 | 3980 ft | 216 kts | 163° |
| 2026-05-04 11:49 | 14.14610 | 100.67714 | 3787 ft | 216 kts | 163° |
| 2026-05-04 11:49 | 14.13159 | 100.68126 | 3543 ft | 216 kts | 164° |
| 2026-05-04 11:50 | 14.11709 | 100.68538 | 3304 ft | 216 kts | 164° |
| 2026-05-04 11:50 | 14.10283 | 100.68944 | 3071 ft | 208 kts | 166° |
| 2026-05-04 11:50 | 14.08941 | 100.68837 | 2948 ft | 191 kts | 205° |
| 2026-05-04 11:50 | 14.07733 | 100.68360 | 2732 ft | 189 kts | 192° |
| 2026-05-04 11:51 | 14.06415 | 100.68124 | 2456 ft | 194 kts | 186° |
| 2026-05-04 11:51 | 14.05053 | 100.67972 | 2134 ft | 199 kts | 185° |
| 2026-05-04 11:51 | 14.03688 | 100.67775 | 1890 ft | 200 kts | 191° |
| 2026-05-04 11:51 | 14.02371 | 100.67319 | 1677 ft | 199 kts | 204° |
| 2026-05-04 11:52 | 14.01234 | 100.66655 | 1650 ft | 164 kts | 209° |
| 2026-05-04 11:52 | 14.00387 | 100.66108 | 1500 ft | 133 kts | 210° |
| 2026-05-04 11:52 | 13.99623 | 100.65626 | 1298 ft | 125 kts | 209° |
| 2026-05-04 11:52 | 13.98886 | 100.65171 | 1109 ft | 122 kts | 207° |
| 2026-05-04 11:53 | 13.98156 | 100.64737 | 1036 ft | 123 kts | 208° |
| 2026-05-04 11:53 | 13.97386 | 100.64313 | 933 ft | 132 kts | 205° |
| 2026-05-04 11:53 | 13.96558 | 100.63864 | 791 ft | 137 kts | 206° |
| 2026-05-04 11:53 | 13.95740 | 100.63408 | 680 ft | 126 kts | 207° |
| 2026-05-04 11:55 | 13.91335 | 100.60929 | 13 ft | 32 kts | 206° |
| 2026-05-04 11:55 | 13.91257 | 100.60925 | 15 ft | 7 kts | 146° |
| 2026-05-04 11:56 | 13.91226 | 100.60977 | 14 ft | 10 kts | 99° |
| 2026-05-04 11:56 | 13.91242 | 100.61052 | 14 ft | 12 kts | 104° |
| 2026-05-04 11:56 | 13.91196 | 100.61077 | 14 ft | 3 kts | 206° |
| 2026-05-04 11:56 | 13.91177 | 100.61067 | 14 ft | 2 kts | 209° |
| 2026-05-04 11:57 | 13.91138 | 100.61045 | 14 ft | 0 kts | 208° |